Time;durP1;ratioP1;P1;durP2;ratioP2;P2;SDS_P1;SDS_P2;PMS_P1;PMS_P2;Temp;Humidity;BMP_temperature;BMP_pressure;BME280_temperature;BME280_humidity;BME280_pressure;Samples;Min_cycle;Max_cycle;Signal;HPM_P1;HPM_P2
2022/11/26 00:00:11;;;;;;;;;;;8.00;99.90;;;;;;7351385;19;109510;-84
2022/11/26 00:02:38;;;;;;;;;;;8.00;99.90;;;;;;7345413;19;110478;-85
2022/11/26 00:05:06;;;;;;;;;;;8.00;99.90;;;;;;7343627;19;108716;-84
2022/11/26 00:07:33;;;;;;;;;;;8.00;99.90;;;;;;7343206;19;109754;-85
2022/11/26 00:10:00;;;;;;;;;;;7.90;99.90;;;;;;7340477;19;110259;-85
2022/11/26 00:12:31;;;;;;;;;;;8.00;99.90;;;;;;7343082;19;111606;-85
2022/11/26 00:14:59;;;;;;;;;;;7.90;99.90;;;;;;7341637;19;109294;-85
2022/11/26 00:17:26;;;;;;;;;;;7.90;99.90;;;;;;7341852;19;112244;-85
2022/11/26 00:19:52;;;;;;;;;;;7.90;99.90;;;;;;7341106;19;109559;-84
2022/11/26 00:22:30;;;;;;;;;;;7.90;99.90;;;;;;7344987;19;111929;-85
2022/11/26 00:24:57;;;;;;;;;;;7.80;99.90;;;;;;7343998;19;108505;-85
2022/11/26 00:27:25;;;;;;;;;;;7.80;99.90;;;;;;7340039;19;110291;-85
2022/11/26 00:29:52;;;;;;;;;;;7.70;99.90;;;;;;7341077;19;110422;-85
2022/11/26 00:32:20;;;;;;;;;;;7.80;99.90;;;;;;7342897;19;108698;-85
2022/11/26 00:34:48;;;;;;;;;;;7.70;99.90;;;;;;7342816;19;112128;-85
2022/11/26 00:37:18;;;;;;;;;;;7.70;99.90;;;;;;7340431;19;112562;-85
2022/11/26 00:39:45;;;;;;;;;;;7.70;99.90;;;;;;7341432;19;108632;-85
2022/11/26 00:42:12;;;;;;;;;;;7.70;99.90;;;;;;7348605;19;109594;-85
2022/11/26 00:44:39;;;;;;;;;;;7.70;99.90;;;;;;7342551;19;108331;-85
2022/11/26 00:47:07;;;;;;;;;;;7.60;99.90;;;;;;7342655;19;110524;-85
2022/11/26 00:49:35;;;;;;;;;;;7.60;99.90;;;;;;7340065;19;110572;-85
2022/11/26 00:52:02;;;;;;;;;;;7.50;99.90;;;;;;7341760;19;108801;-84
2022/11/26 00:54:29;;;;;;;;;;;7.50;99.90;;;;;;7341691;19;108919;-85
2022/11/26 00:56:56;;;;;;;;;;;7.50;99.90;;;;;;7340517;19;110353;-85
2022/11/26 00:59:23;;;;;;;;;;;7.50;99.90;;;;;;7342182;19;109440;-85
2022/11/26 01:01:50;;;;;;;;;;;7.50;99.90;;;;;;7342080;19;109498;-85
2022/11/26 01:04:17;;;;;;;;;;;7.50;99.90;;;;;;7345485;19;110584;-84
2022/11/26 01:06:44;;;;;;;;;;;7.50;99.90;;;;;;7341687;19;110052;-84
2022/11/26 01:09:14;;;;;;;;;;;7.40;99.90;;;;;;7339605;19;113102;-84
2022/11/26 01:11:42;;;;;;;;;;;7.40;99.90;;;;;;7339132;19;108905;-85
2022/11/26 01:14:15;;;;;;;;;;;7.40;99.90;;;;;;7342925;19;108609;-84
2022/11/26 01:16:44;;;;;;;;;;;7.30;99.90;;;;;;7341460;19;110761;-84
2022/11/26 01:19:12;;;;;;;;;;;7.30;99.90;;;;;;7342006;19;108852;-84
2022/11/26 01:21:39;;;;;;;;;;;7.30;99.90;;;;;;7341887;19;108937;-84
2022/11/26 01:24:06;;;;;;;;;;;7.30;99.90;;;;;;7338859;19;111057;-84
2022/11/26 01:26:37;;;;;;;;;;;7.20;99.90;;;;;;7346651;19;108405;-84
2022/11/26 01:29:04;;;;;;;;;;;7.20;99.90;;;;;;7339815;19;111998;-84
2022/11/26 01:31:31;;;;;;;;;;;7.20;99.90;;;;;;7341344;19;109332;-84
2022/11/26 01:33:58;;;;;;;;;;;7.20;99.90;;;;;;7340376;19;110172;-84
2022/11/26 01:36:34;;;;;;;;;;;7.20;99.90;;;;;;7340394;19;110314;-84
2022/11/26 01:39:21;;;;;;;;;;;7.20;99.90;;;;;;7338653;19;109774;-84
2022/11/26 01:41:55;;;;;;;;;;;7.20;99.90;;;;;;7337186;19;109267;-84
2022/11/26 01:44:23;;;;;;;;;;;7.20;99.90;;;;;;7339018;19;110581;-84
2022/11/26 01:46:51;;;;;;;;;;;7.20;99.90;;;;;;7338521;19;108744;-84
2022/11/26 01:49:20;;;;;;;;;;;7.10;99.90;;;;;;7343092;19;111270;-84
2022/11/26 01:51:49;;;;;;;;;;;7.10;99.90;;;;;;7343598;19;108777;-85
2022/11/26 01:54:16;;;;;;;;;;;7.10;99.90;;;;;;7343761;19;110017;-84
2022/11/26 01:56:45;;;;;;;;;;;7.10;99.90;;;;;;7345928;19;109347;-85
2022/11/26 01:59:31;;;;;;;;;;;7.10;99.90;;;;;;7344369;19;108403;-85
2022/11/26 02:01:59;;;;;;;;;;;7.10;99.90;;;;;;7345949;19;109687;-85
2022/11/26 02:04:32;;;;;;;;;;;7.00;99.90;;;;;;7345919;19;109845;-85
2022/11/26 02:06:59;;;;;;;;;;;7.00;99.90;;;;;;7343686;19;108483;-84
2022/11/26 02:09:27;;;;;;;;;;;7.00;99.90;;;;;;7343533;19;109159;-85
2022/11/26 02:11:54;;;;;;;;;;;7.00;99.90;;;;;;7350582;19;110587;-84
2022/11/26 02:14:25;;;;;;;;;;;7.00;99.90;;;;;;7346111;19;109506;-85
2022/11/26 02:17:10;;;;;;;;;;;6.90;99.90;;;;;;7341035;19;111545;-85
2022/11/26 02:19:56;;;;;;;;;;;7.00;99.90;;;;;;7341084;19;108691;-85
2022/11/26 02:22:42;;;;;;;;;;;7.00;99.90;;;;;;7340820;19;109067;-85
2022/11/26 02:25:12;;;;;;;;;;;7.00;99.90;;;;;;7340447;19;110726;-84
2022/11/26 02:27:58;;;;;;;;;;;7.00;99.90;;;;;;7340953;19;108681;-84
2022/11/26 02:30:26;;;;;;;;;;;6.90;99.90;;;;;;7340239;19;110088;-85
2022/11/26 02:32:54;;;;;;;;;;;6.90;99.90;;;;;;7337176;19;110139;-84
2022/11/26 02:35:23;;;;;;;;;;;6.90;99.90;;;;;;7344437;19;108363;-85
2022/11/26 02:37:52;;;;;;;;;;;6.90;99.90;;;;;;7337299;19;110229;-84
2022/11/26 02:40:19;;;;;;;;;;;6.90;99.90;;;;;;7337427;19;109660;-84
2022/11/26 02:42:47;;;;;;;;;;;6.80;99.90;;;;;;7339455;19;110243;-85
2022/11/26 02:45:16;;;;;;;;;;;6.90;99.90;;;;;;7336810;19;111511;-85
2022/11/26 02:47:44;;;;;;;;;;;6.80;99.90;;;;;;7340701;19;108626;-84
2022/11/26 02:50:17;;;;;;;;;;;6.80;99.90;;;;;;7338350;19;108562;-84
2022/11/26 02:52:46;;;;;;;;;;;6.80;99.90;;;;;;7339608;19;110845;-84
2022/11/26 02:55:15;;;;;;;;;;;6.80;99.90;;;;;;7347803;19;112308;-84
2022/11/26 02:57:49;;;;;;;;;;;6.80;99.90;;;;;;7346119;19;110708;-84
2022/11/26 03:00:16;;;;;;;;;;;6.70;99.90;;;;;;7344798;19;108379;-84
2022/11/26 03:02:48;;;;;;;;;;;6.70;99.90;;;;;;7344738;19;109681;-85
2022/11/26 03:05:17;;;;;;;;;;;6.70;99.90;;;;;;7344607;19;110402;-85
2022/11/26 03:07:48;;;;;;;;;;;6.70;99.90;;;;;;7345928;19;108781;-84
2022/11/26 03:10:15;;;;;;;;;;;6.70;99.90;;;;;;7343001;19;111650;-85
2022/11/26 03:12:42;;;;;;;;;;;6.70;99.90;;;;;;7345282;19;110059;-84
2022/11/26 03:15:10;;;;;;;;;;;6.70;99.90;;;;;;7339820;19;109568;-85
2022/11/26 03:17:37;;;;;;;;;;;6.70;99.90;;;;;;7346291;19;111207;-85
2022/11/26 03:20:04;;;;;;;;;;;6.70;99.90;;;;;;7343866;19;108833;-84
2022/11/26 03:22:31;;;;;;;;;;;6.70;99.90;;;;;;7343774;19;109219;-84
2022/11/26 03:24:58;;;;;;;;;;;6.60;99.90;;;;;;7346889;19;112174;-85
2022/11/26 03:27:25;;;;;;;;;;;6.70;99.90;;;;;;7344078;19;108490;-84
2022/11/26 03:29:51;;;;;;;;;;;6.60;99.90;;;;;;7345909;19;112009;-84
2022/11/26 03:32:18;;;;;;;;;;;6.60;99.90;;;;;;7344116;19;109967;-84
2022/11/26 03:34:45;;;;;;;;;;;6.60;99.90;;;;;;7344989;19;108568;-85
2022/11/26 03:37:12;;;;;;;;;;;6.60;99.90;;;;;;7341180;19;110380;-85
2022/11/26 03:39:39;;;;;;;;;;;6.60;99.90;;;;;;7346618;19;110314;-85
2022/11/26 03:42:06;;;;;;;;;;;6.60;99.90;;;;;;7343552;19;111594;-85
2022/11/26 03:44:33;;;;;;;;;;;6.60;99.90;;;;;;7341231;19;110672;-84
2022/11/26 03:47:00;;;;;;;;;;;6.60;99.90;;;;;;7344701;19;110263;-84
2022/11/26 03:49:27;;;;;;;;;;;6.60;99.90;;;;;;7343834;19;109754;-85
2022/11/26 03:51:54;;;;;;;;;;;6.60;99.90;;;;;;7342692;19;110392;-84
2022/11/26 03:54:21;;;;;;;;;;;6.60;99.90;;;;;;7344780;19;108474;-84
2022/11/26 03:56:48;;;;;;;;;;;6.60;99.90;;;;;;7343064;19;110112;-85
2022/11/26 03:59:15;;;;;;;;;;;6.60;99.90;;;;;;7342038;19;110774;-85
2022/11/26 04:01:42;;;;;;;;;;;6.60;99.90;;;;;;7349136;19;108509;-84
2022/11/26 04:04:09;;;;;;;;;;;6.50;99.90;;;;;;7344050;19;112434;-84
2022/11/26 04:06:36;;;;;;;;;;;6.50;99.90;;;;;;7342232;19;108608;-84
2022/11/26 04:09:03;;;;;;;;;;;6.50;99.90;;;;;;7344281;19;109680;-85
2022/11/26 04:11:30;;;;;;;;;;;6.50;99.90;;;;;;7337337;19;109895;-85
2022/11/26 04:13:57;;;;;;;;;;;6.50;99.90;;;;;;7344990;19;108271;-84
2022/11/26 04:16:24;;;;;;;;;;;6.50;99.90;;;;;;7340115;19;108350;-84
2022/11/26 04:18:51;;;;;;;;;;;6.50;99.90;;;;;;7343206;19;110312;-84
2022/11/26 04:21:18;;;;;;;;;;;6.40;99.90;;;;;;7336572;19;108957;-84
2022/11/26 04:23:45;;;;;;;;;;;6.40;99.90;;;;;;7349644;19;109146;-84
2022/11/26 04:26:15;;;;;;;;;;;6.50;99.90;;;;;;7342760;19;108530;-84
2022/11/26 04:28:43;;;;;;;;;;;6.50;99.90;;;;;;7341451;19;108645;-85
2022/11/26 04:31:10;;;;;;;;;;;6.40;99.90;;;;;;7342042;19;110302;-84
2022/11/26 04:33:36;;;;;;;;;;;6.40;99.90;;;;;;7341471;19;109805;-84
2022/11/26 04:36:04;;;;;;;;;;;6.30;99.90;;;;;;7343095;19;108802;-84
2022/11/26 04:38:31;;;;;;;;;;;6.30;99.90;;;;;;7341647;19;111563;-84
2022/11/26 04:40:58;;;;;;;;;;;6.20;99.90;;;;;;7343186;19;108175;-84
2022/11/26 04:43:25;;;;;;;;;;;6.30;99.90;;;;;;7342609;19;108987;-84
2022/11/26 04:45:51;;;;;;;;;;;6.20;99.90;;;;;;7347876;19;110373;-84
2022/11/26 04:48:18;;;;;;;;;;;6.20;99.90;;;;;;7340826;19;108580;-84
2022/11/26 04:50:45;;;;;;;;;;;6.30;99.90;;;;;;7340556;19;113556;-84
2022/11/26 04:53:13;;;;;;;;;;;6.30;99.90;;;;;;7340113;19;108657;-84
2022/11/26 04:55:40;;;;;;;;;;;6.30;99.90;;;;;;7344595;19;109160;-84
2022/11/26 04:58:07;;;;;;;;;;;6.30;99.90;;;;;;7341754;19;110115;-84
2022/11/26 05:00:34;;;;;;;;;;;6.30;99.90;;;;;;7343472;19;108455;-84
2022/11/26 05:03:01;;;;;;;;;;;6.30;99.90;;;;;;7342715;19;109311;-84
2022/11/26 05:05:28;;;;;;;;;;;6.30;99.90;;;;;;7347021;19;110066;-84
2022/11/26 05:07:55;;;;;;;;;;;6.30;99.90;;;;;;7341727;19;108828;-84
2022/11/26 05:10:22;;;;;;;;;;;6.30;99.90;;;;;;7342141;19;112313;-84
2022/11/26 05:12:49;;;;;;;;;;;6.30;99.90;;;;;;7339666;19;109019;-84
2022/11/26 05:15:16;;;;;;;;;;;6.30;99.90;;;;;;7340783;19;109745;-84
2022/11/26 05:17:43;;;;;;;;;;;6.30;99.90;;;;;;7341836;19;110451;-85
2022/11/26 05:20:10;;;;;;;;;;;6.30;99.90;;;;;;7341952;19;108841;-84
2022/11/26 05:22:37;;;;;;;;;;;6.30;99.90;;;;;;7341536;19;110492;-84
2022/11/26 05:25:04;;;;;;;;;;;6.30;99.90;;;;;;7342816;19;111744;-84
2022/11/26 05:27:31;;;;;;;;;;;6.30;99.90;;;;;;7346289;19;108354;-84
2022/11/26 05:29:58;;;;;;;;;;;6.30;99.90;;;;;;7341049;19;110783;-84
2022/11/26 05:32:25;;;;;;;;;;;6.30;99.90;;;;;;7341244;19;109239;-84
2022/11/26 05:34:52;;;;;;;;;;;6.30;99.90;;;;;;7341679;19;109204;-84
2022/11/26 05:37:25;;;;;;;;;;;6.30;99.90;;;;;;7339956;19;113845;-84
2022/11/26 05:39:52;;;;;;;;;;;6.30;99.90;;;;;;7341922;19;108470;-85
2022/11/26 05:42:19;;;;;;;;;;;6.30;99.90;;;;;;7340610;19;109028;-84
2022/11/26 05:44:46;;;;;;;;;;;6.30;99.90;;;;;;7342083;19;110676;-84
2022/11/26 05:47:13;;;;;;;;;;;6.30;99.90;;;;;;7341832;19;110210;-84
2022/11/26 05:49:39;;;;;;;;;;;6.30;99.90;;;;;;7345590;19;108898;-84
2022/11/26 05:52:07;;;;;;;;;;;6.30;99.90;;;;;;7340823;19;108612;-83
2022/11/26 05:54:33;;;;;;;;;;;6.30;99.90;;;;;;7338946;19;111533;-84
2022/11/26 05:57:01;;;;;;;;;;;6.30;99.90;;;;;;7339584;19;112664;-84
2022/11/26 05:59:27;;;;;;;;;;;6.20;99.90;;;;;;7338646;19;111085;-85
2022/11/26 06:01:55;;;;;;;;;;;6.10;99.90;;;;;;7339212;19;109750;-84
2022/11/26 06:04:22;;;;;;;;;;;6.10;99.90;;;;;;7337666;19;110525;-84
2022/11/26 06:06:49;;;;;;;;;;;6.10;99.90;;;;;;7340460;19;108960;-84
2022/11/26 06:09:16;;;;;;;;;;;6.10;99.90;;;;;;7337425;19;109234;-85
2022/11/26 06:11:42;;;;;;;;;;;6.10;99.90;;;;;;7344569;19;111251;-84
2022/11/26 06:14:09;;;;;;;;;;;6.10;99.90;;;;;;7341016;19;109567;-84
2022/11/26 06:16:39;;;;;;;;;;;6.10;99.90;;;;;;7338796;19;110268;-84
2022/11/26 06:19:06;;;;;;;;;;;6.10;99.90;;;;;;7337018;19;108900;-84
2022/11/26 06:21:33;;;;;;;;;;;6.10;99.90;;;;;;7334332;19;109251;-84
2022/11/26 06:24:00;;;;;;;;;;;6.10;99.90;;;;;;7336945;19;113041;-84
2022/11/26 06:26:27;;;;;;;;;;;6.10;99.90;;;;;;7340599;19;109376;-84
2022/11/26 06:28:54;;;;;;;;;;;6.10;99.90;;;;;;7340436;19;109580;-84
2022/11/26 06:31:21;;;;;;;;;;;6.10;99.90;;;;;;7336768;19;110431;-84
2022/11/26 06:33:51;;;;;;;;;;;6.10;99.90;;;;;;7344656;19;108399;-84
2022/11/26 06:36:18;;;;;;;;;;;6.10;99.90;;;;;;7337864;19;111586;-84
2022/11/26 06:38:45;;;;;;;;;;;6.10;99.90;;;;;;7340174;19;110052;-84
2022/11/26 06:41:12;;;;;;;;;;;6.10;99.90;;;;;;7338677;19;109896;-84
2022/11/26 06:43:39;;;;;;;;;;;6.10;99.90;;;;;;7337854;19;111173;-84
2022/11/26 06:46:07;;;;;;;;;;;6.10;99.90;;;;;;7340160;19;110085;-84
2022/11/26 06:48:35;;;;;;;;;;;6.10;99.90;;;;;;7336789;19;111418;-84
2022/11/26 06:51:07;;;;;;;;;;;6.10;99.90;;;;;;7337611;19;112610;-84
2022/11/26 06:53:34;;;;;;;;;;;6.10;99.90;;;;;;7336539;19;109466;-84
2022/11/26 06:56:01;;;;;;;;;;;6.00;99.90;;;;;;7342473;19;109097;-84
2022/11/26 06:58:28;;;;;;;;;;;6.10;99.90;;;;;;7340804;19;108464;-84
2022/11/26 07:00:55;;;;;;;;;;;6.00;99.90;;;;;;7338204;19;109339;-84
2022/11/26 07:03:23;;;;;;;;;;;6.00;99.90;;;;;;7335850;19;110887;-84
2022/11/26 07:05:57;;;;;;;;;;;6.10;99.90;;;;;;7340206;19;108864;-84
2022/11/26 07:08:24;;;;;;;;;;;6.10;99.90;;;;;;7335845;19;109621;-84
2022/11/26 07:10:51;;;;;;;;;;;6.10;99.90;;;;;;7338530;19;110488;-84
2022/11/26 07:13:18;;;;;;;;;;;6.10;99.90;;;;;;7337232;19;108626;-83
2022/11/26 07:15:44;;;;;;;;;;;6.00;99.90;;;;;;7342265;19;109531;-85
2022/11/26 07:18:12;;;;;;;;;;;6.00;99.90;;;;;;7331282;19;108856;-84
2022/11/26 07:20:39;;;;;;;;;;;6.00;99.90;;;;;;7337834;19;109074;-84
2022/11/26 07:23:05;;;;;;;;;;;6.00;99.90;;;;;;7336537;19;110627;-84
2022/11/26 07:25:33;;;;;;;;;;;6.00;99.90;;;;;;7335853;19;111537;-84
2022/11/26 07:27:59;;;;;;;;;;;6.00;99.90;;;;;;7337958;19;109772;-84
2022/11/26 07:30:26;;;;;;;;;;;6.00;99.90;;;;;;7337168;19;110446;-84
2022/11/26 07:32:53;;;;;;;;;;;6.00;99.90;;;;;;7336627;19;108708;-84
2022/11/26 07:35:20;;;;;;;;;;;6.00;99.90;;;;;;7338926;19;108614;-84
2022/11/26 07:37:47;;;;;;;;;;;6.00;99.90;;;;;;7342406;19;110171;-84
2022/11/26 07:40:14;;;;;;;;;;;6.00;99.90;;;;;;7343929;19;109560;-84
2022/11/26 07:42:41;;;;;;;;;;;6.10;99.90;;;;;;7342305;19;113257;-84
2022/11/26 07:45:08;;;;;;;;;;;6.10;99.90;;;;;;7344085;19;108527;-84
2022/11/26 07:47:35;;;;;;;;;;;6.10;99.90;;;;;;7342422;19;109170;-84
2022/11/26 07:50:02;;;;;;;;;;;6.10;99.90;;;;;;7341485;19;113137;-84
2022/11/26 07:52:30;;;;;;;;;;;6.10;99.90;;;;;;7344264;19;108610;-84
2022/11/26 07:54:56;;;;;;;;;;;6.10;99.90;;;;;;7344318;19;109199;-83
2022/11/26 07:57:24;;;;;;;;;;;6.10;99.90;;;;;;7342828;19;110353;-84
2022/11/26 07:59:51;;;;;;;;;;;6.20;99.90;;;;;;7350246;19;108577;-84
2022/11/26 08:02:18;;;;;;;;;;;6.20;99.90;;;;;;7340404;19;109321;-84
2022/11/26 08:04:45;;;;;;;;;;;6.30;99.90;;;;;;7344916;19;108740;-84
2022/11/26 08:07:11;;;;;;;;;;;6.30;99.90;;;;;;7344987;19;109761;-85
2022/11/26 08:09:48;;;;;;;;;;;6.30;99.90;;;;;;7341600;19;110163;-84
2022/11/26 08:12:15;;;;;;;;;;;6.40;99.90;;;;;;7342412;19;108716;-84
2022/11/26 08:14:42;;;;;;;;;;;6.40;99.90;;;;;;7346141;19;109623;-86
2022/11/26 08:17:09;;;;;;;;;;;6.40;99.90;;;;;;7344733;19;108281;-84
2022/11/26 08:19:36;;;;;;;;;;;6.50;99.90;;;;;;7340985;19;109210;-85
2022/11/26 08:22:03;;;;;;;;;;;6.50;99.90;;;;;;7349276;19;111679;-84
2022/11/26 08:24:30;;;;;;;;;;;6.50;99.90;;;;;;7344517;19;108279;-84
2022/11/26 08:26:59;;;;;;;;;;;6.50;99.90;;;;;;7345348;19;109227;-84
2022/11/26 08:29:26;;;;;;;;;;;6.60;99.90;;;;;;7342746;19;110297;-84
2022/11/26 08:31:53;;;;;;;;;;;6.60;99.90;;;;;;7342492;19;108497;-84
2022/11/26 08:34:20;;;;;;;;;;;6.70;99.90;;;;;;7340534;19;109451;-85
2022/11/26 08:36:47;;;;;;;;;;;6.80;99.90;;;;;;7345253;19;109446;-84
2022/11/26 08:41:45;;;;;;;;;;;6.90;99.90;;;;;;7343285;19;109472;-85
2022/11/26 08:44:18;;;;;;;;;;;7.00;99.90;;;;;;7345891;19;110964;-88
2022/11/26 08:46:45;;;;;;;;;;;7.10;99.90;;;;;;7342935;19;109727;-85
2022/11/26 08:49:13;;;;;;;;;;;7.20;99.90;;;;;;7343792;19;113636;-85
2022/11/26 08:51:40;;;;;;;;;;;7.30;99.90;;;;;;7343315;19;108451;-85
2022/11/26 08:54:08;;;;;;;;;;;7.30;99.90;;;;;;7344830;19;110909;-86
2022/11/26 08:56:35;;;;;;;;;;;7.50;99.90;;;;;;7339446;19;110218;-85
2022/11/26 08:59:02;;;;;;;;;;;7.50;99.90;;;;;;7340751;19;108877;-85
2022/11/26 09:01:31;;;;;;;;;;;7.60;99.90;;;;;;7341620;19;109375;-85
2022/11/26 09:03:59;;;;;;;;;;;7.70;99.90;;;;;;7341114;19;110622;-85
2022/11/26 09:06:27;;;;;;;;;;;7.80;99.90;;;;;;7345367;19;108665;-86
2022/11/26 09:09:13;;;;;;;;;;;7.80;99.90;;;;;;7338182;19;110273;-86
2022/11/26 09:11:48;;;;;;;;;;;7.90;99.90;;;;;;7342718;19;108135;-86
2022/11/26 09:14:16;;;;;;;;;;;8.00;99.90;;;;;;7342795;19;109470;-86
2022/11/26 09:16:43;;;;;;;;;;;8.00;99.90;;;;;;7339353;19;110728;-86
2022/11/26 09:19:11;;;;;;;;;;;8.10;99.90;;;;;;7342798;19;108522;-86
2022/11/26 09:21:38;;;;;;;;;;;8.10;99.90;;;;;;7341049;19;109718;-87
2022/11/26 09:24:05;;;;;;;;;;;8.20;99.90;;;;;;7341321;19;110450;-86
2022/11/26 09:26:35;;;;;;;;;;;8.30;99.90;;;;;;7344756;19;109074;-86
2022/11/26 09:29:03;;;;;;;;;;;8.40;99.90;;;;;;7341829;19;113827;-87
2022/11/26 09:31:31;;;;;;;;;;;8.50;99.90;;;;;;7341172;19;108626;-87
2022/11/26 09:33:59;;;;;;;;;;;8.60;99.90;;;;;;7338677;19;109400;-87
2022/11/26 09:36:26;;;;;;;;;;;8.70;99.90;;;;;;7338258;19;113620;-87
2022/11/26 09:38:56;;;;;;;;;;;8.70;99.90;;;;;;7339552;19;108874;-87
2022/11/26 09:41:23;;;;;;;;;;;8.90;99.90;;;;;;7338974;19;108708;-87
2022/11/26 09:43:50;;;;;;;;;;;8.90;99.90;;;;;;7340975;19;112782;-87
2022/11/26 09:46:23;;;;;;;;;;;9.00;99.90;;;;;;7337851;19;109564;-87
2022/11/26 09:48:52;;;;;;;;;;;9.00;99.90;;;;;;7347948;19;110403;-88
2022/11/26 09:51:20;;;;;;;;;;;9.10;99.90;;;;;;7339026;19;108540;-88
2022/11/26 09:53:48;;;;;;;;;;;9.10;99.90;;;;;;7342246;19;109160;-86
2022/11/26 09:56:19;;;;;;;;;;;9.10;99.90;;;;;;7338993;19;110263;-71
2022/11/26 09:58:52;;;;;;;;;;;9.20;99.90;;;;;;7338378;19;108686;-71
2022/11/26 10:01:20;;;;;;;;;;;9.20;99.90;;;;;;7337486;19;109244;-71
2022/11/26 10:03:51;;;;;;;;;;;9.30;99.90;;;;;;7335678;19;111954;-69
2022/11/26 10:06:24;;;;;;;;;;;9.40;99.90;;;;;;7336921;19;110489;-69
2022/11/26 10:09:09;;;;;;;;;;;9.50;99.90;;;;;;7337712;19;109615;-69
2022/11/26 10:11:55;;;;;;;;;;;9.70;99.90;;;;;;7343500;19;109557;-69
2022/11/26 10:14:40;;;;;;;;;;;9.90;99.90;;;;;;7338465;19;109283;-69
2022/11/26 10:17:26;;;;;;;;;;;10.00;99.90;;;;;;7339668;19;111972;-69
2022/11/26 10:19:53;;;;;;;;;;;10.10;99.90;;;;;;7337091;19;108820;-69
2022/11/26 10:22:23;;;;;;;;;;;10.20;99.90;;;;;;7337411;19;109235;-69
2022/11/26 10:24:50;;;;;;;;;;;10.30;99.90;;;;;;7336998;19;110601;-69
2022/11/26 10:27:18;;;;;;;;;;;10.40;99.90;;;;;;7336960;19;109228;-69
2022/11/26 10:29:49;;;;;;;;;;;10.50;99.90;;;;;;7337955;19;108931;-69
2022/11/26 10:32:26;;;;;;;;;;;10.60;99.90;;;;;;7339048;19;111457;-69
2022/11/26 10:34:55;;;;;;;;;;;10.70;99.90;;;;;;7341961;19;108600;-69
2022/11/26 10:37:23;;;;;;;;;;;10.70;99.90;;;;;;7335586;19;109313;-70
2022/11/26 10:39:56;;;;;;;;;;;10.70;99.90;;;;;;7334098;19;108794;-69
2022/11/26 10:42:38;;;;;;;;;;;10.80;99.90;;;;;;7336098;19;110261;-69
2022/11/26 10:45:15;;;;;;;;;;;10.90;99.90;;;;;;7335714;19;111562;-69
2022/11/26 10:47:42;;;;;;;;;;;10.90;99.90;;;;;;7336978;19;109263;-69
2022/11/26 10:50:09;;;;;;;;;;;11.00;99.90;;;;;;7335599;19;109611;-73
2022/11/26 10:53:03;;;;;;;;;;;11.00;99.90;;;;;;7336726;19;111720;-69
2022/11/26 10:55:33;;;;;;;;;;;11.10;99.90;;;;;;7335614;19;108914;-69
2022/11/26 10:58:03;;;;;;;;;;;11.20;99.90;;;;;;7340964;19;110615;-69
2022/11/26 11:00:37;;;;;;;;;;;11.20;99.90;;;;;;7336139;19;108767;-69
2022/11/26 11:03:11;;;;;;;;;;;11.20;99.90;;;;;;7335671;19;108631;-69
2022/11/26 11:05:38;;;;;;;;;;;11.30;99.90;;;;;;7337970;19;112167;-69
2022/11/26 11:08:11;;;;;;;;;;;11.40;99.90;;;;;;7337073;19;108853;-69
2022/11/26 11:10:50;;;;;;;;;;;11.40;99.90;;;;;;7337105;19;110903;-69
2022/11/26 11:13:17;;;;;;;;;;;11.40;99.90;;;;;;7335355;19;110907;-70
2022/11/26 11:15:44;;;;;;;;;;;11.50;99.90;;;;;;7340888;19;108919;-69
2022/11/26 11:18:11;;;;;;;;;;;11.50;99.90;;;;;;7345746;19;108690;-69
2022/11/26 11:20:39;;;;;;;;;;;11.50;99.90;;;;;;7343780;19;109737;-69
2022/11/26 11:23:09;;;;;;;;;;;11.50;99.90;;;;;;7343039;19;109277;-69
2022/11/26 11:25:38;;;;;;;;;;;11.60;99.90;;;;;;7341817;19;110814;-69
2022/11/26 11:28:14;;;;;;;;;;;11.70;99.90;;;;;;7344666;19;108871;-69
2022/11/26 11:30:43;;;;;;;;;;;11.80;99.90;;;;;;7343997;19;110037;-69
2022/11/26 11:33:15;;;;;;;;;;;11.80;99.90;;;;;;7343594;19;110900;-69
2022/11/26 11:35:42;;;;;;;;;;;11.90;99.90;;;;;;7342738;19;109443;-69
2022/11/26 11:38:35;;;;;;;;;;;12.00;99.90;;;;;;7339881;19;109636;-69
2022/11/26 11:41:04;;;;;;;;;;;12.00;99.90;;;;;;7344313;19;112476;-69
2022/11/26 11:43:33;;;;;;;;;;;12.10;99.90;;;;;;7340641;19;109202;-69
2022/11/26 11:46:08;;;;;;;;;;;12.20;99.90;;;;;;7344075;19;110306;-69
2022/11/26 11:48:45;;;;;;;;;;;12.20;99.90;;;;;;7340066;19;108575;-69
2022/11/26 11:51:15;;;;;;;;;;;12.30;99.90;;;;;;7342929;19;108457;-69
2022/11/26 11:53:43;;;;;;;;;;;12.30;99.90;;;;;;7341926;19;109935;-69
2022/11/26 11:56:13;;;;;;;;;;;12.40;99.90;;;;;;7337941;19;109313;-70
2022/11/26 11:58:40;;;;;;;;;;;12.50;99.90;;;;;;7340569;19;109649;-69
2022/11/26 12:01:10;;;;;;;;;;;12.60;99.90;;;;;;7343507;19;109175;-70
2022/11/26 12:03:37;;;;;;;;;;;12.60;99.90;;;;;;7346941;19;109471;-69
2022/11/26 12:06:03;;;;;;;;;;;12.70;99.90;;;;;;7342330;19;110700;-69
2022/11/26 12:08:39;;;;;;;;;;;12.70;99.90;;;;;;7340239;19;109013;-69
2022/11/26 12:11:09;;;;;;;;;;;12.80;99.90;;;;;;7343989;19;109788;-69
2022/11/26 12:13:40;;;;;;;;;;;12.90;99.90;;;;;;7341339;19;114997;-75
2022/11/26 12:16:09;;;;;;;;;;;13.00;99.90;;;;;;7342924;19;108591;-76
2022/11/26 12:18:39;;;;;;;;;;;13.10;99.90;;;;;;7342038;19;110719;-78
2022/11/26 12:21:08;;;;;;;;;;;13.20;99.90;;;;;;7342650;19;110662;-76
2022/11/26 12:23:39;;;;;;;;;;;13.20;99.90;;;;;;7340199;19;109049;-79
2022/11/26 12:26:12;;;;;;;;;;;13.30;99.90;;;;;;7343984;19;110873;-77
2022/11/26 12:28:42;;;;;;;;;;;13.40;99.90;;;;;;7341438;19;108522;-77
2022/11/26 12:31:23;;;;;;;;;;;13.40;99.90;;;;;;7338037;19;109672;-78
2022/11/26 12:33:52;;;;;;;;;;;13.50;99.90;;;;;;7338488;19;109110;-73
2022/11/26 12:36:19;;;;;;;;;;;13.60;99.90;;;;;;7336323;19;108653;-77
2022/11/26 12:38:54;;;;;;;;;;;13.60;99.90;;;;;;7342386;19;109069;-69
2022/11/26 12:41:27;;;;;;;;;;;13.70;99.90;;;;;;7338395;19;109254;-69
2022/11/26 12:44:03;;;;;;;;;;;13.70;99.90;;;;;;7338913;19;108948;-69
2022/11/26 12:46:33;;;;;;;;;;;13.70;99.90;;;;;;7341157;19;109519;-69
2022/11/26 12:49:05;;;;;;;;;;;13.80;99.90;;;;;;7346531;19;110274;-69
2022/11/26 12:51:37;;;;;;;;;;;13.80;99.90;;;;;;7342121;19;109308;-69
2022/11/26 12:54:13;;;;;;;;;;;13.90;99.90;;;;;;7340783;19;110384;-69
2022/11/26 12:56:49;;;;;;;;;;;13.90;99.90;;;;;;7339513;19;108669;-70
2022/11/26 12:59:21;;;;;;;;;;;14.00;99.90;;;;;;7336280;19;110144;-70
2022/11/26 13:01:48;;;;;;;;;;;14.10;99.90;;;;;;7339158;19;109550;-69
2022/11/26 13:04:16;;;;;;;;;;;14.10;99.90;;;;;;7339665;19;108495;-70
2022/11/26 13:07:06;;;;;;;;;;;14.20;99.90;;;;;;7340297;19;108684;-70
2022/11/26 13:09:53;;;;;;;;;;;14.20;99.90;;;;;;7338004;19;110382;-69
2022/11/26 13:12:39;;;;;;;;;;;14.20;99.90;;;;;;7342002;19;109395;-69
2022/11/26 13:15:05;;;;;;;;;;;14.30;99.90;;;;;;7339967;19;112404;-69
2022/11/26 13:17:38;;;;;;;;;;;14.20;99.90;;;;;;7339074;19;108466;-69
2022/11/26 13:20:28;;;;;;;;;;;14.30;99.90;;;;;;7340055;19;109182;-69
2022/11/26 13:23:14;;;;;;;;;;;14.20;99.90;;;;;;7337925;19;110355;-69
2022/11/26 13:25:50;;;;;;;;;;;14.10;99.90;;;;;;7339689;19;108704;-70
2022/11/26 13:28:22;;;;;;;;;;;14.10;99.90;;;;;;7337138;19;110203;-69
2022/11/26 13:31:15;;;;;;;;;;;14.10;99.90;;;;;;7337610;19;110193;-69
2022/11/26 13:33:54;;;;;;;;;;;14.10;99.90;;;;;;7346190;19;108568;-69
2022/11/26 13:36:44;;;;;;;;;;;14.00;99.90;;;;;;7336704;19;110355;-69
2022/11/26 13:39:14;;;;;;;;;;;14.00;99.90;;;;;;7338342;19;108676;-69
2022/11/26 13:41:46;;;;;;;;;;;14.00;99.90;;;;;;7340412;19;109754;-70
2022/11/26 13:44:13;;;;;;;;;;;14.00;99.90;;;;;;7336939;19;111307;-70
2022/11/26 13:46:44;;;;;;;;;;;14.00;99.90;;;;;;7338180;19;108758;-69
2022/11/26 13:49:16;;;;;;;;;;;14.00;99.90;;;;;;7336197;19;112200;-70
2022/11/26 13:51:58;;;;;;;;;;;14.00;99.90;;;;;;7334816;19;109115;-70
2022/11/26 13:54:46;;;;;;;;;;;14.00;99.90;;;;;;7336092;19;109197;-70
2022/11/26 13:57:15;;;;;;;;;;;14.00;99.90;;;;;;7341258;19;109178;-70
2022/11/26 13:59:46;;;;;;;;;;;13.90;99.90;;;;;;7337595;19;108879;-70
2022/11/26 14:02:32;;;;;;;;;;;13.90;99.90;;;;;;7337953;19;112745;-70
2022/11/26 14:05:17;;;;;;;;;;;13.90;99.90;;;;;;7336047;19;109194;-70
2022/11/26 14:07:44;;;;;;;;;;;13.80;99.90;;;;;;7338847;19;108724;-70
2022/11/26 14:10:29;;;;;;;;;;;13.70;99.90;;;;;;7338072;19;109100;-70
2022/11/26 14:13:02;;;;;;;;;;;13.70;99.90;;;;;;7337900;19;110268;-70
2022/11/26 14:15:41;;;;;;;;;;;13.70;99.90;;;;;;7339350;19;109148;-70
2022/11/26 14:18:08;;;;;;;;;;;13.70;99.90;;;;;;7336609;19;109787;-70
2022/11/26 14:20:53;;;;;;;;;;;13.80;99.90;;;;;;7342006;19;110005;-70
2022/11/26 14:23:39;;;;;;;;;;;13.80;99.90;;;;;;7335581;19;109958;-70
2022/11/26 14:26:07;;;;;;;;;;;13.90;99.90;;;;;;7338028;19;110168;-70
2022/11/26 14:28:34;;;;;;;;;;;13.90;99.90;;;;;;7336918;19;108516;-70
2022/11/26 14:31:13;;;;;;;;;;;13.90;99.90;;;;;;7337702;19;110481;-70